createdAt,value
2017-04-04T00:00:35.855Z,14.18
2017-04-04T00:01:16.328Z,14.09
2017-04-04T00:01:56.848Z,14.1
2017-04-04T00:02:37.331Z,14.09
2017-04-04T00:03:17.815Z,14.03
2017-04-04T00:03:58.306Z,13.95
2017-04-04T00:04:38.837Z,13.97
2017-04-04T00:05:19.340Z,14.09
2017-04-04T00:05:59.782Z,14
2017-04-04T00:06:40.302Z,14.07
2017-04-04T00:07:20.787Z,13.99
2017-04-04T00:08:01.267Z,13.92
2017-04-04T00:08:41.733Z,14
2017-04-04T00:09:22.244Z,13.95
2017-04-04T00:10:02.796Z,13.79
2017-04-04T00:10:43.226Z,13.77
2017-04-04T00:11:23.737Z,13.78
2017-04-04T00:12:04.205Z,13.79
2017-04-04T00:12:44.720Z,13.69
2017-04-04T00:13:25.232Z,13.64
2017-04-04T00:14:05.728Z,13.64
2017-04-04T00:14:46.207Z,13.73
2017-04-04T00:15:26.736Z,13.75
2017-04-04T00:16:07.206Z,13.64
2017-04-04T00:16:47.693Z,13.84
2017-04-04T00:17:28.200Z,13.82
2017-04-04T00:18:08.753Z,13.88
2017-04-04T00:18:49.248Z,13.89
2017-04-04T00:19:29.743Z,13.97
2017-04-04T00:20:10.242Z,13.95
2017-04-04T00:20:50.709Z,13.89
2017-04-04T00:21:31.318Z,13.7
2017-04-04T00:22:11.768Z,13.75
2017-04-04T00:22:52.314Z,13.81
2017-04-04T00:23:32.751Z,13.95
2017-04-04T00:24:13.276Z,13.96
2017-04-04T00:24:53.761Z,14.06
2017-04-04T00:25:34.274Z,14
2017-04-04T00:26:14.757Z,14.06
2017-04-04T00:26:55.292Z,14.04
2017-04-04T00:27:35.778Z,14.02
2017-04-04T00:28:16.320Z,13.84
2017-04-04T00:28:56.778Z,13.75
2017-04-04T00:29:37.272Z,13.75
2017-04-04T00:30:17.779Z,13.66
2017-04-04T00:30:58.268Z,13.54
2017-04-04T00:31:38.778Z,13.55
2017-04-04T00:32:19.288Z,13.66
2017-04-04T00:32:59.780Z,13.7
2017-04-04T00:33:40.267Z,13.81
2017-04-04T00:34:20.778Z,13.85
2017-04-04T00:35:01.280Z,13.82
2017-04-04T00:35:41.802Z,13.81
2017-04-04T00:36:22.291Z,13.88
2017-04-04T00:37:02.796Z,13.88
2017-04-04T00:37:43.277Z,13.88
2017-04-04T00:38:23.802Z,13.87
2017-04-04T00:39:04.299Z,13.99
2017-04-04T00:39:44.786Z,14.1
2017-04-04T00:40:25.287Z,14.02
2017-04-04T00:41:05.817Z,14
2017-04-04T00:41:46.323Z,13.95
2017-04-04T00:42:26.776Z,13.96
2017-04-04T00:43:07.384Z,13.95
2017-04-04T00:43:47.861Z,13.85
2017-04-04T00:44:28.337Z,13.87
2017-04-04T00:45:08.831Z,13.91
2017-04-04T00:45:49.378Z,13.77
2017-04-04T00:46:29.832Z,13.69
2017-04-04T00:47:10.322Z,13.66
2017-04-04T00:47:50.849Z,13.66
2017-04-04T00:48:31.316Z,13.75
2017-04-04T00:49:11.815Z,13.82
2017-04-04T00:49:52.376Z,13.79
2017-04-04T00:50:32.779Z,13.67
2017-04-04T00:51:13.300Z,13.63
2017-04-04T00:51:53.813Z,13.59
2017-04-04T00:52:34.292Z,13.57
2017-04-04T00:53:14.811Z,13.55
2017-04-04T00:53:55.274Z,13.62
2017-04-04T00:54:35.764Z,13.6
2017-04-04T00:55:16.265Z,13.62
2017-04-04T00:55:56.756Z,13.64
2017-04-04T00:56:37.252Z,13.54
2017-04-04T00:57:17.837Z,13.57
2017-04-04T00:57:58.319Z,13.57
2017-04-04T00:58:38.793Z,13.54
2017-04-04T00:59:19.299Z,13.6
2017-04-04T00:59:59.789Z,13.6
2017-04-04T01:00:40.317Z,13.7
2017-04-04T01:01:20.769Z,13.73
2017-04-04T01:02:01.320Z,13.79
2017-04-04T01:02:41.753Z,13.63
2017-04-04T01:03:22.229Z,13.66
2017-04-04T01:04:02.749Z,13.69
2017-04-04T01:04:43.283Z,13.52
2017-04-04T01:05:23.775Z,13.54
2017-04-04T01:06:04.224Z,13.46
2017-04-04T01:06:44.736Z,13.51
2017-04-04T01:07:25.228Z,13.44
2017-04-04T01:08:05.780Z,13.25
2017-04-04T01:08:46.317Z,13.14
2017-04-04T01:09:26.868Z,13.11
2017-04-04T01:10:07.307Z,13.28
2017-04-04T01:10:47.811Z,13.19
2017-04-04T01:11:28.307Z,13.26
2017-04-04T01:12:08.797Z,13.39
2017-04-04T01:12:49.327Z,13.28
2017-04-04T01:13:29.842Z,13.25
2017-04-04T01:14:10.293Z,13.29
2017-04-04T01:14:50.777Z,13.28
2017-04-04T01:15:31.285Z,13.38
2017-04-04T01:16:11.805Z,13.33
2017-04-04T01:16:52.266Z,13.39
2017-04-04T01:17:32.760Z,13.39
2017-04-04T01:18:13.424Z,13.42
2017-04-04T01:18:53.764Z,13.3
2017-04-04T01:19:34.269Z,13.41
2017-04-04T01:20:14.773Z,13.36
2017-04-04T01:20:55.268Z,13.36
2017-04-04T01:21:35.753Z,13.44
2017-04-04T01:22:16.231Z,13.44
2017-04-04T01:22:56.749Z,13.38
2017-04-04T01:23:37.267Z,13.3
2017-04-04T01:24:17.767Z,13.38
2017-04-04T01:24:58.421Z,13.28
2017-04-04T01:25:38.873Z,13.39
2017-04-04T01:26:19.398Z,13.3
2017-04-04T01:26:59.895Z,13.25
2017-04-04T01:27:40.379Z,13.2
2017-04-04T01:28:20.885Z,13.12
2017-04-04T01:29:01.353Z,13.01
2017-04-04T01:29:41.875Z,12.78
2017-04-04T01:30:22.333Z,12.77
2017-04-04T01:31:02.825Z,12.72
2017-04-04T01:31:43.349Z,12.68
2017-04-04T01:32:23.833Z,12.85
2017-04-04T01:33:04.318Z,12.89
2017-04-04T01:33:44.774Z,12.86
2017-04-04T01:34:25.268Z,12.82
2017-04-04T01:35:05.779Z,12.87
2017-04-04T01:35:46.269Z,12.92
2017-04-04T01:36:26.771Z,12.87
2017-04-04T01:37:07.308Z,12.92
2017-04-04T01:37:47.796Z,13.03
2017-04-04T01:38:28.276Z,13.01
2017-04-04T01:39:08.805Z,13.1
2017-04-04T01:39:49.276Z,13.01
2017-04-04T01:40:29.774Z,12.96
2017-04-04T01:41:10.274Z,12.96
2017-04-04T01:41:50.737Z,12.93
2017-04-04T01:42:31.255Z,12.83
2017-04-04T01:43:11.750Z,12.96
2017-04-04T01:43:52.217Z,13.01
2017-04-04T01:44:32.716Z,12.97
2017-04-04T01:45:13.217Z,12.7
2017-04-04T01:45:53.733Z,12.68
2017-04-04T01:46:34.232Z,12.72
2017-04-04T01:47:14.739Z,12.7
2017-04-04T01:47:55.261Z,12.67
2017-04-04T01:48:35.730Z,12.62
2017-04-04T01:49:16.214Z,12.65
2017-04-04T01:49:56.695Z,12.71
2017-04-04T01:50:37.248Z,12.71
2017-04-04T01:51:17.751Z,12.74
2017-04-04T01:51:58.218Z,12.68
2017-04-04T01:52:38.716Z,12.86
2017-04-04T01:53:19.188Z,12.89
2017-04-04T01:53:59.724Z,12.96
2017-04-04T01:54:40.204Z,12.97
2017-04-04T01:55:20.690Z,12.95
2017-04-04T01:56:01.211Z,12.97
2017-04-04T01:56:41.704Z,13.01
2017-04-04T01:57:22.185Z,13.1
2017-04-04T01:58:02.692Z,13
2017-04-04T01:58:43.168Z,13.11
2017-04-04T01:59:23.657Z,13.07
2017-04-04T02:00:04.145Z,13.12
2017-04-04T02:00:44.632Z,13.12
2017-04-04T02:01:25.253Z,13.01
2017-04-04T02:02:05.754Z,12.93
2017-04-04T02:02:46.236Z,12.9
2017-04-04T02:03:26.724Z,12.78
2017-04-04T02:04:07.216Z,12.72
2017-04-04T02:04:47.715Z,12.75
2017-04-04T02:05:28.227Z,12.71
2017-04-04T02:06:08.756Z,12.71
2017-04-04T02:06:49.213Z,12.68
2017-04-04T02:07:29.723Z,12.64
2017-04-04T02:08:10.230Z,12.67
2017-04-04T02:08:50.731Z,12.62
2017-04-04T02:09:31.259Z,12.46
2017-04-04T02:10:11.760Z,12.52
2017-04-04T02:10:52.242Z,12.62
2017-04-04T02:11:32.733Z,12.6
2017-04-04T02:12:13.251Z,12.71
2017-04-04T02:12:53.772Z,12.65
2017-04-04T02:13:34.309Z,12.59
2017-04-04T02:14:14.745Z,12.54
2017-04-04T02:14:55.252Z,12.56
2017-04-04T02:15:35.837Z,12.72
2017-04-04T02:16:16.359Z,12.6
2017-04-04T02:16:56.822Z,12.49
2017-04-04T02:17:37.331Z,12.53
2017-04-04T02:18:17.834Z,12.5
2017-04-04T02:18:58.342Z,12.47
2017-04-04T02:19:38.829Z,12.39
2017-04-04T02:20:19.342Z,12.28
2017-04-04T02:20:59.845Z,12.28
2017-04-04T02:21:40.337Z,12.05
2017-04-04T02:22:20.813Z,12.19
2017-04-04T02:23:01.358Z,12.14
2017-04-04T02:23:41.810Z,12.28
2017-04-04T02:24:22.299Z,12.34
2017-04-04T02:25:02.818Z,12.39
2017-04-04T02:25:43.359Z,12.28
2017-04-04T02:26:23.847Z,12.24
2017-04-04T02:27:04.335Z,12.07
2017-04-04T02:27:44.805Z,12.28
2017-04-04T02:28:25.294Z,12.35
2017-04-04T02:29:05.786Z,12.37
2017-04-04T02:29:46.279Z,12.34
2017-04-04T02:30:26.794Z,12.37
2017-04-04T02:31:07.293Z,12.24
2017-04-04T02:31:47.803Z,12.29
2017-04-04T02:32:28.302Z,12.37
2017-04-04T02:33:08.775Z,12.29
2017-04-04T02:33:49.335Z,12.16
2017-04-04T02:34:29.790Z,12.02
2017-04-04T02:35:10.286Z,12.05
2017-04-04T02:35:50.763Z,12.14
2017-04-04T02:36:31.284Z,12.37
2017-04-04T02:37:11.763Z,12.38
2017-04-04T02:37:52.264Z,12.41
2017-04-04T02:38:32.768Z,12.31
2017-04-04T02:39:13.280Z,12.38
2017-04-04T02:39:53.783Z,12.46
2017-04-04T02:40:34.288Z,12.56
2017-04-04T02:41:14.759Z,12.68
2017-04-04T02:41:55.240Z,12.53
2017-04-04T02:42:35.735Z,12.41
2017-04-04T02:43:16.212Z,12.27
2017-04-04T02:43:56.716Z,12.31
2017-04-04T02:44:37.236Z,12.24
2017-04-04T02:45:17.687Z,12.27
2017-04-04T02:45:58.185Z,12.29
2017-04-04T02:46:38.690Z,12.35
2017-04-04T02:47:19.149Z,12.35
2017-04-04T02:47:59.666Z,12.1
2017-04-04T02:48:40.122Z,12.23
2017-04-04T02:49:20.594Z,12.32
2017-04-04T02:50:01.097Z,12.35
2017-04-04T02:50:41.597Z,12.49
2017-04-04T02:51:22.122Z,12.39
2017-04-04T02:52:02.597Z,12.2
2017-04-04T02:52:43.098Z,12.28
2017-04-04T02:53:23.590Z,12.28
2017-04-04T02:54:04.124Z,12.23
2017-04-04T02:54:44.579Z,12.28
2017-04-04T02:55:25.082Z,12.24
2017-04-04T02:56:05.585Z,12.09
2017-04-04T02:56:46.077Z,11.96
2017-04-04T02:57:26.580Z,12.04
2017-04-04T02:58:07.077Z,12.04
2017-04-04T02:58:47.590Z,12.13
2017-04-04T02:59:28.106Z,12.24
2017-04-04T03:00:08.603Z,12.28
2017-04-04T03:00:49.085Z,12.2
2017-04-04T03:01:29.581Z,12.23
2017-04-04T03:02:10.093Z,12.27
2017-04-04T03:02:50.586Z,12.21
2017-04-04T03:03:31.092Z,12.29
2017-04-04T03:04:11.575Z,12.13
2017-04-04T03:04:52.088Z,12.12
2017-04-04T03:05:32.560Z,12.23
2017-04-04T03:06:13.146Z,12.19
2017-04-04T03:06:53.631Z,12.27
2017-04-04T03:07:34.112Z,12.16
2017-04-04T03:08:14.602Z,12.1
2017-04-04T03:08:55.118Z,12.1
2017-04-04T03:09:35.617Z,12.12
2017-04-04T03:10:16.088Z,12.27
2017-04-04T03:10:56.578Z,12.41
2017-04-04T03:11:37.099Z,12.32
2017-04-04T03:12:17.559Z,12.24
2017-04-04T03:12:58.069Z,12.28
2017-04-04T03:13:38.556Z,12.24
2017-04-04T03:14:19.026Z,12.39
2017-04-04T03:14:59.520Z,12.31
2017-04-04T03:15:40.012Z,12.29
2017-04-04T03:16:20.509Z,12.14
2017-04-04T03:17:01.004Z,12.14
2017-04-04T03:17:41.626Z,12.13
2017-04-04T03:18:22.073Z,12.21
2017-04-04T03:19:02.553Z,12.14
2017-04-04T03:19:43.036Z,12.14
2017-04-04T03:20:23.527Z,11.99
2017-04-04T03:21:04.047Z,12.13
2017-04-04T03:21:44.514Z,12.23
2017-04-04T03:22:24.994Z,12.28
2017-04-04T03:23:05.480Z,12.32
2017-04-04T03:23:45.958Z,12.34
2017-04-04T03:24:26.485Z,12.45
2017-04-04T03:25:06.978Z,12.42
2017-04-04T03:25:47.475Z,12.37
2017-04-04T03:26:27.965Z,12.37
2017-04-04T03:27:08.476Z,12.37
2017-04-04T03:27:48.980Z,12.41
2017-04-04T03:28:29.491Z,12.35
2017-04-04T03:29:09.985Z,12.41
2017-04-04T03:29:50.507Z,12.27
2017-04-04T03:30:30.958Z,12.28
2017-04-04T03:31:11.461Z,12.27
2017-04-04T03:31:51.954Z,12.28
2017-04-04T03:32:32.432Z,12.28
2017-04-04T03:33:12.934Z,12.23
2017-04-04T03:33:53.432Z,12.09
2017-04-04T03:34:33.926Z,12.14
2017-04-04T03:35:14.456Z,11.96
2017-04-04T03:35:54.903Z,11.96
2017-04-04T03:36:35.403Z,12.02
2017-04-04T03:37:15.934Z,11.94
2017-04-04T03:37:56.383Z,11.82
2017-04-04T03:38:36.922Z,11.83
2017-04-04T03:39:17.404Z,11.94
2017-04-04T03:39:57.858Z,11.99
2017-04-04T03:40:38.366Z,12.01
2017-04-04T03:41:18.851Z,12.12
2017-04-04T03:41:59.380Z,12.14
2017-04-04T03:42:39.867Z,12.2
2017-04-04T03:43:20.399Z,12.31
2017-04-04T03:44:00.838Z,12.19
2017-04-04T03:44:41.333Z,12.07
2017-04-04T03:45:21.844Z,12.13
2017-04-04T03:46:02.325Z,12.29
2017-04-04T03:46:42.869Z,12.29
2017-04-04T03:47:23.323Z,12.17
2017-04-04T03:48:03.842Z,12.01
2017-04-04T03:48:44.343Z,11.99
2017-04-04T03:49:24.907Z,12.01
2017-04-04T03:50:05.415Z,12.13
2017-04-04T03:50:45.937Z,12.17
2017-04-04T03:51:26.428Z,12.13
2017-04-04T03:52:06.974Z,11.98
2017-04-04T03:52:47.528Z,12.04
2017-04-04T03:53:27.958Z,12.07
2017-04-04T03:54:08.445Z,11.98
2017-04-04T03:54:48.919Z,12.01
2017-04-04T03:55:29.448Z,11.94
2017-04-04T03:56:09.941Z,11.65
2017-04-04T03:56:50.454Z,11.57
2017-04-04T03:57:30.916Z,11.6
2017-04-04T03:58:11.412Z,11.64
2017-04-04T03:58:51.933Z,11.49
2017-04-04T03:59:32.417Z,11.58
2017-04-04T04:00:12.914Z,11.65
2017-04-04T04:00:53.400Z,11.75
2017-04-04T04:01:33.915Z,11.76
2017-04-04T04:02:14.376Z,11.83
2017-04-04T04:02:54.917Z,11.79
2017-04-04T04:03:35.385Z,11.86
2017-04-04T04:04:15.898Z,11.79
2017-04-04T04:04:56.376Z,11.69
2017-04-04T04:05:36.902Z,11.72
2017-04-04T04:06:17.360Z,11.79
2017-04-04T04:06:57.809Z,11.76
2017-04-04T04:07:38.342Z,11.86
2017-04-04T04:08:18.822Z,11.73
2017-04-04T04:08:59.266Z,11.82
2017-04-04T04:09:39.801Z,11.9
2017-04-04T04:10:20.285Z,11.96
2017-04-04T04:11:00.758Z,12.01
2017-04-04T04:11:41.275Z,11.94
2017-04-04T04:12:21.792Z,11.73
2017-04-04T04:13:02.246Z,11.64
2017-04-04T04:13:42.718Z,11.69
2017-04-04T04:14:23.223Z,11.75
2017-04-04T04:15:03.723Z,11.86
2017-04-04T04:15:44.269Z,12.01
2017-04-04T04:16:24.719Z,11.98
2017-04-04T04:17:05.217Z,12.01
2017-04-04T04:17:45.743Z,11.98
2017-04-04T04:18:26.238Z,11.98
2017-04-04T04:19:06.697Z,11.99
2017-04-04T04:19:47.204Z,11.94
2017-04-04T04:20:27.694Z,11.7
2017-04-04T04:21:08.229Z,11.72
2017-04-04T04:21:48.709Z,11.72
2017-04-04T04:22:29.200Z,11.76
2017-04-04T04:23:09.676Z,11.8
2017-04-04T04:23:50.202Z,11.64
2017-04-04T04:24:30.678Z,11.69
2017-04-04T04:25:11.149Z,11.65
2017-04-04T04:25:51.628Z,11.83
2017-04-04T04:26:32.152Z,11.83
2017-04-04T04:27:12.620Z,11.88
2017-04-04T04:27:53.132Z,11.91
2017-04-04T04:28:33.615Z,11.94
2017-04-04T04:29:14.084Z,11.88
2017-04-04T04:29:54.592Z,11.79
2017-04-04T04:30:35.120Z,11.7
2017-04-04T04:31:15.609Z,11.62
2017-04-04T04:31:56.043Z,11.73
2017-04-04T04:32:36.589Z,11.78
2017-04-04T04:33:17.048Z,11.82
2017-04-04T04:33:57.554Z,11.86
2017-04-04T04:34:38.030Z,11.94
2017-04-04T04:35:18.520Z,12.01
2017-04-04T04:35:59.047Z,11.94
2017-04-04T04:36:39.533Z,11.99
2017-04-04T04:37:20.000Z,11.96
2017-04-04T04:38:00.527Z,11.83
2017-04-04T04:38:41.027Z,11.96
2017-04-04T04:39:21.477Z,11.91
2017-04-04T04:40:01.986Z,11.9
2017-04-04T04:40:42.480Z,11.95
2017-04-04T04:41:23.009Z,11.95
2017-04-04T04:42:03.506Z,11.94
2017-04-04T04:42:44.198Z,11.85
2017-04-04T04:43:24.488Z,11.9
2017-04-04T04:44:04.994Z,11.88
2017-04-04T04:44:45.483Z,11.91
2017-04-04T04:45:25.971Z,12.01
2017-04-04T04:46:06.529Z,12.04
2017-04-04T04:46:47.016Z,11.96
2017-04-04T04:47:27.518Z,11.98
2017-04-04T04:48:08.018Z,11.98
2017-04-04T04:48:48.552Z,11.99
2017-04-04T04:49:29.034Z,11.78
2017-04-04T04:50:09.584Z,11.65
2017-04-04T04:50:50.056Z,11.55
2017-04-04T04:51:30.538Z,11.72
2017-04-04T04:52:11.061Z,11.82
2017-04-04T04:52:51.521Z,11.79
2017-04-04T04:53:32.061Z,11.61
2017-04-04T04:54:12.524Z,11.6
2017-04-04T04:54:53.022Z,11.52
2017-04-04T04:55:33.532Z,11.73
2017-04-04T04:56:13.981Z,11.65
2017-04-04T04:56:54.514Z,11.64
2017-04-04T04:57:35.021Z,11.7
2017-04-04T04:58:15.485Z,11.75
2017-04-04T04:58:55.969Z,11.73
2017-04-04T04:59:36.517Z,11.75
2017-04-04T05:00:17.014Z,11.54
2017-04-04T05:00:57.536Z,11.47
2017-04-04T05:01:38.015Z,11.47
2017-04-04T05:02:18.537Z,11.37
2017-04-04T05:02:59.034Z,11.4
2017-04-04T05:03:39.516Z,11.29
2017-04-04T05:04:20.020Z,11.32
2017-04-04T05:05:00.488Z,11.36
2017-04-04T05:05:40.988Z,11.32
2017-04-04T05:06:21.488Z,11.29
2017-04-04T05:07:01.979Z,11.39
2017-04-04T05:07:42.516Z,11.4
2017-04-04T05:08:23.017Z,11.44
2017-04-04T05:09:03.484Z,11.42
2017-04-04T05:09:43.980Z,11.35
2017-04-04T05:10:24.458Z,11.22
2017-04-04T05:11:05.435Z,11.21
2017-04-04T05:11:45.727Z,11.29
2017-04-04T05:12:26.279Z,11.17
2017-04-04T05:13:06.707Z,11
2017-04-04T05:13:47.216Z,10.99
2017-04-04T05:14:27.714Z,11.04
2017-04-04T05:15:08.207Z,11.14
2017-04-04T05:15:48.746Z,11.17
2017-04-04T05:16:29.231Z,11.18
2017-04-04T05:17:09.732Z,11.25
2017-04-04T05:17:50.274Z,11.43
2017-04-04T05:18:30.789Z,11.42
2017-04-04T05:19:11.367Z,11.42
2017-04-04T05:19:51.836Z,11.42
2017-04-04T05:20:32.335Z,11.32
2017-04-04T05:21:12.862Z,11.35
2017-04-04T05:21:53.312Z,11.4
2017-04-04T05:22:33.824Z,11.47
2017-04-04T05:23:14.358Z,11.61
2017-04-04T05:23:54.784Z,11.73
2017-04-04T05:24:35.287Z,11.72
2017-04-04T05:25:15.838Z,11.83
2017-04-04T05:25:56.356Z,11.65
2017-04-04T05:26:36.785Z,11.6
2017-04-04T05:27:17.268Z,11.96
2017-04-04T05:27:57.777Z,11.99
2017-04-04T05:28:38.220Z,11.96
2017-04-04T05:29:18.796Z,11.99
2017-04-04T05:29:59.243Z,11.73
2017-04-04T05:30:39.753Z,11.83
2017-04-04T05:31:20.289Z,12.05
2017-04-04T05:32:00.822Z,11.95
2017-04-04T05:32:41.246Z,12.28
2017-04-04T05:33:21.788Z,12.24
2017-04-04T05:34:02.233Z,12.01
2017-04-04T05:34:42.723Z,12.07
2017-04-04T05:35:23.234Z,12.27
2017-04-04T05:36:03.737Z,12.52
2017-04-04T05:36:44.218Z,12.6
2017-04-04T05:37:24.755Z,12.64
2017-04-04T05:38:05.282Z,12.28
2017-04-04T05:38:45.725Z,12.04
2017-04-04T05:39:26.343Z,11.94
2017-04-04T05:40:06.767Z,12.2
2017-04-04T05:40:47.306Z,12.41
2017-04-04T05:41:27.793Z,12.41
2017-04-04T05:42:08.277Z,12.34
2017-04-04T05:42:48.775Z,12.41
2017-04-04T05:43:29.262Z,12.41
2017-04-04T05:44:09.732Z,12.46
2017-04-04T05:44:50.322Z,12.14
2017-04-04T05:45:30.829Z,11.85
2017-04-04T05:46:11.305Z,11.9
2017-04-04T05:46:51.831Z,12.14
2017-04-04T05:47:32.318Z,12.14
2017-04-04T05:48:12.886Z,11.91
2017-04-04T05:48:53.326Z,12.05
2017-04-04T05:49:33.812Z,12.14
2017-04-04T05:50:14.416Z,12.32
2017-04-04T05:50:54.937Z,12.35
2017-04-04T05:51:35.367Z,12.31
2017-04-04T05:52:15.855Z,12.28
2017-04-04T05:52:56.411Z,12.28
2017-04-04T05:53:36.866Z,12.37
2017-04-04T05:54:17.344Z,12.5
2017-04-04T05:54:57.873Z,12.41
2017-04-04T05:55:38.356Z,12.45
2017-04-04T05:56:18.845Z,12.56
2017-04-04T05:56:59.396Z,12.65
2017-04-04T05:57:39.872Z,12.65
2017-04-04T05:58:20.360Z,12.41
2017-04-04T05:59:00.857Z,12.28
2017-04-04T05:59:41.366Z,12.29
2017-04-04T06:00:21.946Z,12.42
2017-04-04T06:01:02.378Z,12.37
2017-04-04T06:01:42.893Z,12.46
2017-04-04T06:02:23.383Z,12.62
2017-04-04T06:03:03.937Z,12.67
2017-04-04T06:03:44.389Z,12.74
2017-04-04T06:04:24.929Z,12.77
2017-04-04T06:05:05.447Z,12.64
2017-04-04T06:05:45.975Z,12.53
2017-04-04T06:06:26.407Z,12.7
2017-04-04T06:07:06.972Z,12.7
2017-04-04T06:07:47.403Z,12.97
2017-04-04T06:08:27.938Z,12.95
2017-04-04T06:09:08.431Z,13.1
2017-04-04T06:09:48.929Z,13.08
2017-04-04T06:10:29.434Z,13.38
2017-04-04T06:11:09.938Z,13.19
2017-04-04T06:11:50.491Z,13.08
2017-04-04T06:12:31.004Z,13.22
2017-04-04T06:13:11.543Z,13.28
2017-04-04T06:13:52.035Z,12.83
2017-04-04T06:14:32.573Z,12.78
2017-04-04T06:15:13.112Z,12.96
2017-04-04T06:15:53.595Z,13.08
2017-04-04T06:16:34.106Z,13.15
2017-04-04T06:17:14.578Z,12.89
2017-04-04T06:17:55.231Z,12.78
2017-04-04T06:18:35.700Z,12.56
2017-04-04T06:19:16.243Z,12.67
2017-04-04T06:19:56.716Z,12.83
2017-04-04T06:20:37.196Z,13.22
2017-04-04T06:21:17.711Z,13.38
2017-04-04T06:21:58.225Z,13
2017-04-04T06:22:38.827Z,12.92
2017-04-04T06:23:19.337Z,13.17
2017-04-04T06:23:59.886Z,13.33
2017-04-04T06:24:40.350Z,13.28
2017-04-04T06:25:20.827Z,12.92
2017-04-04T06:26:01.297Z,12.72
2017-04-04T06:26:41.817Z,12.97
2017-04-04T06:27:22.468Z,13.26
2017-04-04T06:28:02.943Z,13.28
2017-04-04T06:28:43.441Z,13.48
2017-04-04T06:29:23.954Z,13.55
2017-04-04T06:30:04.417Z,13.3
2017-04-04T06:30:44.933Z,13.59
2017-04-04T06:31:25.442Z,13.64
2017-04-04T06:32:06.012Z,13.75
2017-04-04T06:32:46.512Z,13.64
2017-04-04T06:33:26.997Z,13.71
2017-04-04T06:34:07.546Z,13.69
2017-04-04T06:34:47.997Z,13.75
2017-04-04T06:35:28.488Z,13.85
2017-04-04T06:36:09.024Z,13.96
2017-04-04T06:36:53.433Z,13.91
2017-04-04T06:37:34.028Z,13.89
2017-04-04T06:38:14.466Z,13.7
2017-04-04T06:38:54.954Z,13.57
2017-04-04T06:39:35.481Z,13.55
2017-04-04T06:40:15.979Z,13.57
2017-04-04T06:40:56.671Z,13.08
2017-04-04T06:41:37.063Z,13.11
2017-04-04T06:42:17.571Z,13.38
2017-04-04T06:42:58.090Z,13.45
2017-04-04T06:43:38.740Z,13.57
2017-04-04T06:44:19.236Z,13.39
2017-04-04T06:44:59.804Z,13.44
2017-04-04T06:45:40.277Z,13.59
2017-04-04T06:46:20.736Z,13.55
2017-04-04T06:47:01.266Z,13.6
2017-04-04T06:47:41.780Z,13.57
2017-04-04T06:48:22.308Z,13.63
2017-04-04T06:49:02.806Z,13.69
2017-04-04T06:49:43.289Z,13.46
2017-04-04T06:50:23.820Z,13.6
2017-04-04T06:51:04.315Z,13.41
2017-04-04T06:51:44.819Z,13.52
2017-04-04T06:53:33.495Z,13.57
2017-04-04T06:54:13.874Z,13.52
2017-04-04T06:54:54.596Z,13.59
2017-04-04T06:55:34.914Z,13.67
2017-04-04T06:56:15.369Z,13.59
2017-04-04T06:56:55.843Z,13.57
2017-04-04T06:57:36.357Z,13.57
2017-04-04T06:58:16.820Z,13.55
2017-04-04T06:58:57.333Z,13.54
2017-04-04T06:59:37.836Z,13.54
2017-04-04T07:00:18.373Z,13.55
2017-04-04T07:00:58.931Z,13.54
2017-04-04T07:01:39.398Z,13.38
2017-04-04T07:02:19.837Z,13.54
2017-04-04T07:03:00.335Z,13.63
2017-04-04T07:03:40.928Z,13.67
2017-04-04T07:04:21.438Z,13.85
2017-04-04T07:05:01.925Z,13.62
2017-04-04T07:05:42.432Z,13.54
2017-04-04T07:06:22.995Z,13.26
2017-04-04T07:07:03.479Z,13.52
2017-04-04T07:07:43.959Z,13.64
2017-04-04T07:08:24.484Z,13.85
2017-04-04T07:09:05.517Z,14.15
2017-04-04T07:09:46.249Z,14.14
2017-04-04T07:10:26.762Z,14.24
2017-04-04T07:11:07.269Z,14.46
2017-04-04T07:11:47.784Z,14.54
2017-04-04T07:12:28.259Z,14.52
2017-04-04T07:13:08.757Z,14.77
2017-04-04T07:13:49.270Z,14.61
2017-04-04T07:14:29.787Z,14.28
2017-04-04T07:15:10.321Z,14
2017-04-04T07:15:50.870Z,14.17
2017-04-04T07:16:31.406Z,13.82
2017-04-04T07:17:11.827Z,13.81
2017-04-04T07:17:52.356Z,14.04
2017-04-04T07:18:32.822Z,14.18
2017-04-04T07:19:13.383Z,14.18
2017-04-04T07:19:53.856Z,14.37
2017-04-04T07:20:34.344Z,14.45
2017-04-04T07:21:14.990Z,14.28
2017-04-04T07:21:55.455Z,14.17
2017-04-04T07:22:35.955Z,14.21
2017-04-04T07:23:16.473Z,14.24
2017-04-04T07:23:57.015Z,14.52
2017-04-04T07:24:37.546Z,14.77
2017-04-04T07:25:17.996Z,14.81
2017-04-04T07:25:58.480Z,14.88
2017-04-04T07:26:39.041Z,14.99
2017-04-04T07:27:20.158Z,14.98
2017-04-04T07:28:00.707Z,15.02
2017-04-04T07:29:48.876Z,14.91
2017-04-04T07:30:29.262Z,15.02
2017-04-04T07:31:09.748Z,14.83
2017-04-04T07:31:50.310Z,14.95
2017-04-04T07:32:30.771Z,15.11
2017-04-04T07:33:11.281Z,15.02
2017-04-04T07:33:51.941Z,15.11
2017-04-04T07:34:32.430Z,15.03
2017-04-04T07:35:13.120Z,15.03
2017-04-04T07:35:53.889Z,14.99
2017-04-04T07:36:34.503Z,15.06
2017-04-04T07:37:15.598Z,14.86
2017-04-04T07:37:56.513Z,14.88
2017-04-04T07:38:37.145Z,14.84
2017-04-04T07:39:17.815Z,14.92
2017-04-04T07:39:58.423Z,14.57
2017-04-04T07:40:38.920Z,14.36
2017-04-04T07:41:19.450Z,14.46
2017-04-04T07:42:00.044Z,14.69
2017-04-04T07:42:40.504Z,14.78
2017-04-04T07:43:21.002Z,14.78
2017-04-04T07:44:01.770Z,14.81
2017-04-04T07:44:42.041Z,15.03
2017-04-04T07:45:22.522Z,15.09
2017-04-04T07:46:03.033Z,15.21
2017-04-04T07:46:43.529Z,15.06
2017-04-04T07:47:24.088Z,15.07
2017-04-04T07:48:04.533Z,15.1
2017-04-04T07:48:45.039Z,15.19
2017-04-04T07:49:25.490Z,15.21
2017-04-04T07:50:06.139Z,15.41
2017-04-04T07:50:46.648Z,15.36
2017-04-04T07:51:27.275Z,15.5
2017-04-04T07:52:07.772Z,15.51
2017-04-04T07:52:48.320Z,15.56
2017-04-04T07:53:28.773Z,15.57
2017-04-04T07:54:09.246Z,15.57
2017-04-04T07:54:49.748Z,15.47
2017-04-04T07:55:30.256Z,15.46
2017-04-04T07:56:10.757Z,15.54
2017-04-04T07:56:51.267Z,15.5
2017-04-04T07:57:31.733Z,15.5
2017-04-04T07:58:12.224Z,15.62
2017-04-04T07:58:52.965Z,15.56
2017-04-04T07:59:33.504Z,15.56
2017-04-04T08:00:13.980Z,15.56
2017-04-04T08:00:54.468Z,15.67
2017-04-04T08:01:34.991Z,15.65
2017-04-04T08:02:15.817Z,15.69
2017-04-04T08:02:56.362Z,15.69
2017-04-04T08:03:36.821Z,15.67
2017-04-04T08:04:17.325Z,15.6
2017-04-04T08:04:57.854Z,15.82
2017-04-04T08:05:38.358Z,15.76
2017-04-04T08:06:18.848Z,15.89
2017-04-04T08:06:59.653Z,15.87
2017-04-04T08:07:39.899Z,15.8
2017-04-04T08:08:20.376Z,15.59
2017-04-04T08:09:00.868Z,15.47
2017-04-04T08:09:41.343Z,15.5
2017-04-04T08:10:21.848Z,15.54
2017-04-04T08:11:02.348Z,15.5
2017-04-04T08:11:42.893Z,15.35
2017-04-04T08:12:23.370Z,15.32
2017-04-04T08:13:03.841Z,15.35
2017-04-04T08:13:44.339Z,15.39
2017-04-04T08:14:24.895Z,15.47
2017-04-04T08:15:05.370Z,15.62
2017-04-04T08:15:45.886Z,15.62
2017-04-04T08:16:26.353Z,15.71
2017-04-04T08:17:06.958Z,15.35
2017-04-04T08:17:47.640Z,15.41
2017-04-04T08:18:28.096Z,15.19
2017-04-04T08:19:09.138Z,15.07
2017-04-04T08:19:49.078Z,15.07
2017-04-04T08:20:29.600Z,15.2
2017-04-04T08:21:10.106Z,15.39
2017-04-04T08:21:50.590Z,15.39
2017-04-04T08:22:31.117Z,15.47
2017-04-04T08:23:11.688Z,15.51
2017-04-04T08:23:52.203Z,15.64
2017-04-04T08:24:32.691Z,15.57
2017-04-04T08:25:13.299Z,15.6
2017-04-04T08:25:53.774Z,15.53
2017-04-04T08:26:34.236Z,15.44
2017-04-04T08:27:15.147Z,15.41
2017-04-04T08:27:55.640Z,15.49
2017-04-04T08:28:36.125Z,15.5
2017-04-04T08:29:16.659Z,15.57
2017-04-04T08:29:57.205Z,15.64
2017-04-04T08:30:37.737Z,15.57
2017-04-04T08:31:18.225Z,15.53
2017-04-04T08:31:58.740Z,15.71
2017-04-04T08:32:39.252Z,15.29
2017-04-04T08:33:19.744Z,15.28
2017-04-04T08:34:00.285Z,15.44
2017-04-04T08:34:40.836Z,15.47
2017-04-04T08:35:21.324Z,15.56
2017-04-04T08:36:01.826Z,15.62
2017-04-04T08:36:42.345Z,15.54
2017-04-04T08:37:22.769Z,15.56
2017-04-04T08:38:03.339Z,15.54
2017-04-04T08:38:43.793Z,15.6
2017-04-04T08:39:24.341Z,15.54
2017-04-04T08:40:04.819Z,15.46
2017-04-04T08:40:45.319Z,15.31
2017-04-04T08:41:25.807Z,15.34
2017-04-04T08:42:06.299Z,15.29
2017-04-04T08:42:46.835Z,15.28
2017-04-04T08:43:27.344Z,15.06
2017-04-04T08:44:07.812Z,15.32
2017-04-04T08:44:48.361Z,15.44
2017-04-04T08:45:28.866Z,15.72
2017-04-04T08:46:09.335Z,15.75